sensor_id;sensor_type;location;lat;lon;timestamp;P1;durP1;ratioP1;P2;durP2;ratioP2
10947;SDS011;5526;42.070;24.752;2023-04-29T00:01:35;7.15;;;6.53;;
10947;SDS011;5526;42.070;24.752;2023-04-29T00:04:02;7.15;;;6.45;;
10947;SDS011;5526;42.070;24.752;2023-04-29T00:06:29;7.28;;;6.68;;
10947;SDS011;5526;42.070;24.752;2023-04-29T00:08:56;6.60;;;6.10;;
10947;SDS011;5526;42.070;24.752;2023-04-29T00:11:23;6.68;;;6.10;;
10947;SDS011;5526;42.070;24.752;2023-04-29T00:13:50;7.50;;;6.80;;
10947;SDS011;5526;42.070;24.752;2023-04-29T00:16:17;6.72;;;6.05;;
10947;SDS011;5526;42.070;24.752;2023-04-29T00:18:46;7.13;;;6.07;;
10947;SDS011;5526;42.070;24.752;2023-04-29T00:21:13;6.45;;;5.85;;
10947;SDS011;5526;42.070;24.752;2023-04-29T00:23:40;6.35;;;5.50;;
10947;SDS011;5526;42.070;24.752;2023-04-29T00:26:07;6.40;;;5.78;;
10947;SDS011;5526;42.070;24.752;2023-04-29T00:28:34;5.72;;;5.13;;
10947;SDS011;5526;42.070;24.752;2023-04-29T00:31:01;5.97;;;5.35;;
10947;SDS011;5526;42.070;24.752;2023-04-29T00:33:28;6.07;;;5.47;;
10947;SDS011;5526;42.070;24.752;2023-04-29T00:35:57;6.18;;;5.57;;
10947;SDS011;5526;42.070;24.752;2023-04-29T00:38:24;6.53;;;5.88;;
10947;SDS011;5526;42.070;24.752;2023-04-29T00:40:51;6.78;;;5.80;;
10947;SDS011;5526;42.070;24.752;2023-04-29T00:43:18;6.13;;;5.53;;
10947;SDS011;5526;42.070;24.752;2023-04-29T00:45:45;6.65;;;5.60;;
10947;SDS011;5526;42.070;24.752;2023-04-29T00:48:13;5.60;;;5.07;;
10947;SDS011;5526;42.070;24.752;2023-04-29T00:50:40;5.97;;;5.40;;
10947;SDS011;5526;42.070;24.752;2023-04-29T00:53:09;5.53;;;5.03;;
10947;SDS011;5526;42.070;24.752;2023-04-29T00:55:37;6.68;;;5.32;;
10947;SDS011;5526;42.070;24.752;2023-04-29T00:58:04;5.60;;;5.10;;
10947;SDS011;5526;42.070;24.752;2023-04-29T01:00:31;5.65;;;5.00;;
10947;SDS011;5526;42.070;24.752;2023-04-29T01:02:59;6.18;;;5.05;;
10947;SDS011;5526;42.070;24.752;2023-04-29T01:05:26;5.25;;;4.65;;
10947;SDS011;5526;42.070;24.752;2023-04-29T01:07:58;4.72;;;4.30;;
10947;SDS011;5526;42.070;24.752;2023-04-29T01:10:43;4.85;;;4.28;;
10947;SDS011;5526;42.070;24.752;2023-04-29T01:13:16;4.93;;;4.40;;
10947;SDS011;5526;42.070;24.752;2023-04-29T01:15:56;4.40;;;4.00;;
10947;SDS011;5526;42.070;24.752;2023-04-29T01:18:28;5.88;;;4.72;;
10947;SDS011;5526;42.070;24.752;2023-04-29T01:20:59;5.57;;;5.13;;
10947;SDS011;5526;42.070;24.752;2023-04-29T01:23:28;7.38;;;5.00;;
10947;SDS011;5526;42.070;24.752;2023-04-29T01:25:56;7.63;;;5.57;;
10947;SDS011;5526;42.070;24.752;2023-04-29T01:28:27;7.35;;;5.03;;
10947;SDS011;5526;42.070;24.752;2023-04-29T01:31:17;5.55;;;5.05;;
10947;SDS011;5526;42.070;24.752;2023-04-29T01:33:50;5.10;;;4.70;;
10947;SDS011;5526;42.070;24.752;2023-04-29T01:36:36;5.72;;;5.22;;
10947;SDS011;5526;42.070;24.752;2023-04-29T01:39:15;5.40;;;4.90;;
10947;SDS011;5526;42.070;24.752;2023-04-29T01:41:50;7.00;;;6.30;;
10947;SDS011;5526;42.070;24.752;2023-04-29T01:44:23;6.90;;;6.28;;
10947;SDS011;5526;42.070;24.752;2023-04-29T01:46:54;6.70;;;6.10;;
10947;SDS011;5526;42.070;24.752;2023-04-29T01:49:23;6.10;;;5.60;;
10947;SDS011;5526;42.070;24.752;2023-04-29T01:51:50;5.82;;;5.32;;
10947;SDS011;5526;42.070;24.752;2023-04-29T01:54:19;5.80;;;5.35;;
10947;SDS011;5526;42.070;24.752;2023-04-29T01:56:46;5.78;;;5.28;;
10947;SDS011;5526;42.070;24.752;2023-04-29T01:59:13;6.03;;;5.43;;
10947;SDS011;5526;42.070;24.752;2023-04-29T02:01:40;6.32;;;5.80;;
10947;SDS011;5526;42.070;24.752;2023-04-29T02:04:07;6.30;;;5.65;;
10947;SDS011;5526;42.070;24.752;2023-04-29T02:06:34;6.47;;;5.88;;
10947;SDS011;5526;42.070;24.752;2023-04-29T02:09:01;6.18;;;5.53;;
10947;SDS011;5526;42.070;24.752;2023-04-29T02:11:30;5.72;;;5.22;;
10947;SDS011;5526;42.070;24.752;2023-04-29T02:13:57;5.88;;;4.85;;
10947;SDS011;5526;42.070;24.752;2023-04-29T02:16:24;5.53;;;5.03;;
10947;SDS011;5526;42.070;24.752;2023-04-29T02:18:51;5.22;;;4.78;;
10947;SDS011;5526;42.070;24.752;2023-04-29T02:21:18;5.30;;;4.85;;
10947;SDS011;5526;42.070;24.752;2023-04-29T02:23:45;5.20;;;4.60;;
10947;SDS011;5526;42.070;24.752;2023-04-29T02:26:12;4.97;;;4.53;;
10947;SDS011;5526;42.070;24.752;2023-04-29T02:28:41;5.18;;;4.72;;
10947;SDS011;5526;42.070;24.752;2023-04-29T02:31:08;5.40;;;4.88;;
10947;SDS011;5526;42.070;24.752;2023-04-29T02:33:35;5.93;;;5.10;;
10947;SDS011;5526;42.070;24.752;2023-04-29T02:36:02;6.28;;;4.75;;
10947;SDS011;5526;42.070;24.752;2023-04-29T02:38:30;4.97;;;4.53;;
10947;SDS011;5526;42.070;24.752;2023-04-29T02:40:57;5.80;;;4.65;;
10947;SDS011;5526;42.070;24.752;2023-04-29T02:43:24;4.68;;;4.28;;
10947;SDS011;5526;42.070;24.752;2023-04-29T02:45:56;5.15;;;4.65;;
10947;SDS011;5526;42.070;24.752;2023-04-29T02:48:24;4.60;;;4.20;;
10947;SDS011;5526;42.070;24.752;2023-04-29T02:50:51;4.80;;;4.40;;
10947;SDS011;5526;42.070;24.752;2023-04-29T02:53:18;5.55;;;4.90;;
10947;SDS011;5526;42.070;24.752;2023-04-29T02:55:46;5.30;;;4.80;;
10947;SDS011;5526;42.070;24.752;2023-04-29T02:58:13;5.28;;;4.88;;
10947;SDS011;5526;42.070;24.752;2023-04-29T03:00:40;5.22;;;4.72;;
10947;SDS011;5526;42.070;24.752;2023-04-29T03:03:08;6.00;;;5.40;;
10947;SDS011;5526;42.070;24.752;2023-04-29T03:05:35;5.68;;;5.13;;
10947;SDS011;5526;42.070;24.752;2023-04-29T03:08:02;5.47;;;4.97;;
10947;SDS011;5526;42.070;24.752;2023-04-29T03:10:30;5.72;;;5.22;;
10947;SDS011;5526;42.070;24.752;2023-04-29T03:12:57;7.53;;;5.50;;
10947;SDS011;5526;42.070;24.752;2023-04-29T03:15:24;5.95;;;5.35;;
10947;SDS011;5526;42.070;24.752;2023-04-29T03:17:51;5.85;;;5.35;;
10947;SDS011;5526;42.070;24.752;2023-04-29T03:20:19;9.90;;;8.00;;
10947;SDS011;5526;42.070;24.752;2023-04-29T03:22:46;7.90;;;6.82;;
10947;SDS011;5526;42.070;24.752;2023-04-29T03:25:13;8.35;;;6.75;;
10947;SDS011;5526;42.070;24.752;2023-04-29T03:27:40;7.25;;;6.50;;
10947;SDS011;5526;42.070;24.752;2023-04-29T03:30:08;5.15;;;4.75;;
10947;SDS011;5526;42.070;24.752;2023-04-29T03:32:35;5.85;;;4.93;;
10947;SDS011;5526;42.070;24.752;2023-04-29T03:35:02;6.70;;;4.78;;
10947;SDS011;5526;42.070;24.752;2023-04-29T03:37:31;4.70;;;4.30;;
10947;SDS011;5526;42.070;24.752;2023-04-29T03:39:58;4.95;;;4.38;;
10947;SDS011;5526;42.070;24.752;2023-04-29T03:42:25;4.50;;;4.10;;
10947;SDS011;5526;42.070;24.752;2023-04-29T03:44:52;3.78;;;3.40;;
10947;SDS011;5526;42.070;24.752;2023-04-29T03:47:19;3.85;;;3.40;;
10947;SDS011;5526;42.070;24.752;2023-04-29T03:49:46;3.50;;;3.05;;
10947;SDS011;5526;42.070;24.752;2023-04-29T03:52:13;3.50;;;3.20;;
10947;SDS011;5526;42.070;24.752;2023-04-29T03:54:42;28.20;;;26.33;;
10947;SDS011;5526;42.070;24.752;2023-04-29T03:57:09;5.95;;;4.53;;
10947;SDS011;5526;42.070;24.752;2023-04-29T03:59:36;6.97;;;4.93;;
10947;SDS011;5526;42.070;24.752;2023-04-29T04:02:03;5.63;;;5.05;;
10947;SDS011;5526;42.070;24.752;2023-04-29T04:04:30;7.93;;;6.38;;
10947;SDS011;5526;42.070;24.752;2023-04-29T04:06:57;7.22;;;5.60;;
10947;SDS011;5526;42.070;24.752;2023-04-29T04:09:25;8.93;;;7.80;;
10947;SDS011;5526;42.070;24.752;2023-04-29T04:11:53;13.98;;;12.05;;
10947;SDS011;5526;42.070;24.752;2023-04-29T04:14:20;19.23;;;16.23;;
10947;SDS011;5526;42.070;24.752;2023-04-29T04:16:47;10.13;;;8.25;;
10947;SDS011;5526;42.070;24.752;2023-04-29T04:19:14;5.22;;;4.75;;
10947;SDS011;5526;42.070;24.752;2023-04-29T04:21:42;4.70;;;4.30;;
10947;SDS011;5526;42.070;24.752;2023-04-29T04:24:09;4.75;;;4.35;;
10947;SDS011;5526;42.070;24.752;2023-04-29T04:26:36;4.43;;;4.03;;
10947;SDS011;5526;42.070;24.752;2023-04-29T04:29:04;4.63;;;4.15;;
10947;SDS011;5526;42.070;24.752;2023-04-29T04:31:31;4.43;;;4.05;;
10947;SDS011;5526;42.070;24.752;2023-04-29T04:33:58;4.38;;;4.05;;
10947;SDS011;5526;42.070;24.752;2023-04-29T04:36:25;4.63;;;3.67;;
10947;SDS011;5526;42.070;24.752;2023-04-29T04:38:52;3.80;;;3.50;;
10947;SDS011;5526;42.070;24.752;2023-04-29T04:41:19;3.67;;;3.38;;
10947;SDS011;5526;42.070;24.752;2023-04-29T04:43:46;4.38;;;3.97;;
10947;SDS011;5526;42.070;24.752;2023-04-29T04:46:15;4.63;;;3.80;;
10947;SDS011;5526;42.070;24.752;2023-04-29T04:48:42;5.88;;;4.00;;
10947;SDS011;5526;42.070;24.752;2023-04-29T04:51:09;6.30;;;4.50;;
10947;SDS011;5526;42.070;24.752;2023-04-29T04:53:37;6.95;;;6.03;;
10947;SDS011;5526;42.070;24.752;2023-04-29T04:56:05;9.95;;;7.78;;
10947;SDS011;5526;42.070;24.752;2023-04-29T04:58:33;9.40;;;8.40;;
10947;SDS011;5526;42.070;24.752;2023-04-29T05:01:00;10.45;;;7.75;;
10947;SDS011;5526;42.070;24.752;2023-04-29T05:03:28;9.07;;;6.43;;
10947;SDS011;5526;42.070;24.752;2023-04-29T05:05:55;6.15;;;5.55;;
10947;SDS011;5526;42.070;24.752;2023-04-29T05:08:23;6.20;;;5.30;;
10947;SDS011;5526;42.070;24.752;2023-04-29T05:10:51;5.72;;;5.22;;
10947;SDS011;5526;42.070;24.752;2023-04-29T05:13:18;5.93;;;5.38;;
10947;SDS011;5526;42.070;24.752;2023-04-29T05:15:46;7.40;;;5.32;;
10947;SDS011;5526;42.070;24.752;2023-04-29T05:18:13;6.30;;;5.70;;
10947;SDS011;5526;42.070;24.752;2023-04-29T05:20:41;6.57;;;5.95;;
10947;SDS011;5526;42.070;24.752;2023-04-29T05:23:09;6.53;;;5.93;;
10947;SDS011;5526;42.070;24.752;2023-04-29T05:25:36;6.95;;;6.28;;
10947;SDS011;5526;42.070;24.752;2023-04-29T05:28:03;7.00;;;5.78;;
10947;SDS011;5526;42.070;24.752;2023-04-29T05:30:30;6.75;;;6.20;;
10947;SDS011;5526;42.070;24.752;2023-04-29T05:32:57;6.93;;;6.22;;
10947;SDS011;5526;42.070;24.752;2023-04-29T05:35:24;9.32;;;6.50;;
10947;SDS011;5526;42.070;24.752;2023-04-29T05:37:53;7.05;;;6.40;;
10947;SDS011;5526;42.070;24.752;2023-04-29T05:40:20;7.50;;;6.80;;
10947;SDS011;5526;42.070;24.752;2023-04-29T05:42:48;7.85;;;6.70;;
10947;SDS011;5526;42.070;24.752;2023-04-29T05:45:15;7.97;;;6.78;;
10947;SDS011;5526;42.070;24.752;2023-04-29T05:47:42;8.63;;;6.80;;
10947;SDS011;5526;42.070;24.752;2023-04-29T05:50:09;9.25;;;7.13;;
10947;SDS011;5526;42.070;24.752;2023-04-29T05:52:36;8.77;;;7.32;;
10947;SDS011;5526;42.070;24.752;2023-04-29T05:55:05;9.23;;;8.32;;
10947;SDS011;5526;42.070;24.752;2023-04-29T05:57:33;9.50;;;8.60;;
10947;SDS011;5526;42.070;24.752;2023-04-29T06:00:00;11.00;;;8.57;;
10947;SDS011;5526;42.070;24.752;2023-04-29T06:02:28;10.20;;;8.60;;
10947;SDS011;5526;42.070;24.752;2023-04-29T06:04:55;9.70;;;7.90;;
10947;SDS011;5526;42.070;24.752;2023-04-29T06:07:22;8.95;;;8.05;;
10947;SDS011;5526;42.070;24.752;2023-04-29T06:09:51;8.48;;;7.25;;
10947;SDS011;5526;42.070;24.752;2023-04-29T06:12:20;8.38;;;7.55;;
10947;SDS011;5526;42.070;24.752;2023-04-29T06:14:47;8.75;;;7.10;;
10947;SDS011;5526;42.070;24.752;2023-04-29T06:17:14;7.40;;;6.65;;
10947;SDS011;5526;42.070;24.752;2023-04-29T06:19:41;7.30;;;6.60;;
10947;SDS011;5526;42.070;24.752;2023-04-29T06:22:08;7.47;;;6.53;;
10947;SDS011;5526;42.070;24.752;2023-04-29T06:24:35;7.85;;;6.47;;
10947;SDS011;5526;42.070;24.752;2023-04-29T06:27:02;7.18;;;6.10;;
10947;SDS011;5526;42.070;24.752;2023-04-29T06:29:31;6.88;;;6.10;;
10947;SDS011;5526;42.070;24.752;2023-04-29T06:31:58;6.53;;;5.78;;
10947;SDS011;5526;42.070;24.752;2023-04-29T06:34:25;6.38;;;5.88;;
10947;SDS011;5526;42.070;24.752;2023-04-29T06:36:52;9.48;;;6.60;;
10947;SDS011;5526;42.070;24.752;2023-04-29T06:39:19;6.97;;;6.32;;
10947;SDS011;5526;42.070;24.752;2023-04-29T06:41:46;8.77;;;8.05;;
10947;SDS011;5526;42.070;24.752;2023-04-29T06:44:13;10.00;;;7.25;;
10947;SDS011;5526;42.070;24.752;2023-04-29T06:46:42;8.00;;;7.25;;
10947;SDS011;5526;42.070;24.752;2023-04-29T06:49:09;8.38;;;7.30;;
10947;SDS011;5526;42.070;24.752;2023-04-29T06:51:36;7.63;;;6.93;;
10947;SDS011;5526;42.070;24.752;2023-04-29T06:54:04;7.97;;;6.88;;
10947;SDS011;5526;42.070;24.752;2023-04-29T06:56:31;7.65;;;6.95;;
10947;SDS011;5526;42.070;24.752;2023-04-29T06:58:58;7.97;;;7.18;;
10947;SDS011;5526;42.070;24.752;2023-04-29T07:01:25;7.68;;;6.45;;
10947;SDS011;5526;42.070;24.752;2023-04-29T07:03:53;6.13;;;5.53;;
10947;SDS011;5526;42.070;24.752;2023-04-29T07:06:21;6.53;;;5.55;;
10947;SDS011;5526;42.070;24.752;2023-04-29T07:08:48;6.45;;;5.75;;
10947;SDS011;5526;42.070;24.752;2023-04-29T07:11:16;6.28;;;5.68;;
10947;SDS011;5526;42.070;24.752;2023-04-29T07:13:52;5.25;;;4.85;;
10947;SDS011;5526;42.070;24.752;2023-04-29T07:16:19;5.68;;;4.40;;
10947;SDS011;5526;42.070;24.752;2023-04-29T07:18:50;4.70;;;4.30;;
10947;SDS011;5526;42.070;24.752;2023-04-29T07:21:19;4.80;;;4.28;;
10947;SDS011;5526;42.070;24.752;2023-04-29T07:23:46;5.82;;;4.20;;
10947;SDS011;5526;42.070;24.752;2023-04-29T07:26:14;5.13;;;4.35;;
10947;SDS011;5526;42.070;24.752;2023-04-29T07:28:42;4.45;;;4.00;;
10947;SDS011;5526;42.070;24.752;2023-04-29T07:31:10;4.03;;;3.63;;
10947;SDS011;5526;42.070;24.752;2023-04-29T07:33:38;6.68;;;4.45;;
10947;SDS011;5526;42.070;24.752;2023-04-29T07:36:05;7.03;;;6.30;;
10947;SDS011;5526;42.070;24.752;2023-04-29T07:38:34;7.07;;;6.00;;
10947;SDS011;5526;42.070;24.752;2023-04-29T07:41:01;6.30;;;5.70;;
10947;SDS011;5526;42.070;24.752;2023-04-29T07:43:29;5.07;;;4.65;;
10947;SDS011;5526;42.070;24.752;2023-04-29T07:45:56;5.20;;;4.75;;
10947;SDS011;5526;42.070;24.752;2023-04-29T07:48:23;5.60;;;4.95;;
10947;SDS011;5526;42.070;24.752;2023-04-29T07:50:51;5.80;;;5.30;;
10947;SDS011;5526;42.070;24.752;2023-04-29T07:53:18;6.25;;;5.70;;
10947;SDS011;5526;42.070;24.752;2023-04-29T07:55:47;5.10;;;4.60;;
10947;SDS011;5526;42.070;24.752;2023-04-29T07:58:15;5.88;;;5.28;;
10947;SDS011;5526;42.070;24.752;2023-04-29T08:00:42;4.85;;;4.50;;
10947;SDS011;5526;42.070;24.752;2023-04-29T08:03:09;5.50;;;4.43;;
10947;SDS011;5526;42.070;24.752;2023-04-29T08:05:36;5.78;;;4.50;;
10947;SDS011;5526;42.070;24.752;2023-04-29T08:08:03;5.32;;;4.82;;
10947;SDS011;5526;42.070;24.752;2023-04-29T08:10:32;5.68;;;4.90;;
10947;SDS011;5526;42.070;24.752;2023-04-29T08:13:06;5.13;;;4.65;;
10947;SDS011;5526;42.070;24.752;2023-04-29T08:15:33;7.32;;;5.40;;
10947;SDS011;5526;42.070;24.752;2023-04-29T08:18:00;6.10;;;5.05;;
10947;SDS011;5526;42.070;24.752;2023-04-29T08:20:27;5.80;;;4.63;;
10947;SDS011;5526;42.070;24.752;2023-04-29T08:22:57;5.25;;;4.75;;
10947;SDS011;5526;42.070;24.752;2023-04-29T08:25:24;5.47;;;4.97;;
10947;SDS011;5526;42.070;24.752;2023-04-29T08:27:53;5.03;;;4.63;;
10947;SDS011;5526;42.070;24.752;2023-04-29T08:30:22;5.22;;;4.70;;
10947;SDS011;5526;42.070;24.752;2023-04-29T08:32:49;4.82;;;4.43;;
10947;SDS011;5526;42.070;24.752;2023-04-29T08:35:16;4.55;;;4.15;;
10947;SDS011;5526;42.070;24.752;2023-04-29T08:37:43;5.88;;;4.38;;
10947;SDS011;5526;42.070;24.752;2023-04-29T08:40:10;8.02;;;4.72;;
10947;SDS011;5526;42.070;24.752;2023-04-29T08:42:39;17.08;;;6.80;;
10947;SDS011;5526;42.070;24.752;2023-04-29T08:45:07;5.80;;;5.22;;
10947;SDS011;5526;42.070;24.752;2023-04-29T08:47:36;6.55;;;6.05;;
10947;SDS011;5526;42.070;24.752;2023-04-29T08:50:04;5.80;;;5.18;;
10947;SDS011;5526;42.070;24.752;2023-04-29T08:52:32;6.43;;;5.30;;
10947;SDS011;5526;42.070;24.752;2023-04-29T08:55:00;6.32;;;5.65;;
10947;SDS011;5526;42.070;24.752;2023-04-29T08:57:29;8.80;;;7.90;;
10947;SDS011;5526;42.070;24.752;2023-04-29T09:00:04;7.43;;;6.75;;
10947;SDS011;5526;42.070;24.752;2023-04-29T09:02:38;6.78;;;6.07;;
10947;SDS011;5526;42.070;24.752;2023-04-29T09:05:12;7.03;;;6.43;;
10947;SDS011;5526;42.070;24.752;2023-04-29T09:07:40;6.78;;;5.93;;
10947;SDS011;5526;42.070;24.752;2023-04-29T09:10:08;5.80;;;5.30;;
10947;SDS011;5526;42.070;24.752;2023-04-29T09:12:36;6.50;;;5.07;;
10947;SDS011;5526;42.070;24.752;2023-04-29T09:15:03;6.80;;;6.20;;
10947;SDS011;5526;42.070;24.752;2023-04-29T09:17:39;7.65;;;6.70;;
10947;SDS011;5526;42.070;24.752;2023-04-29T09:22:55;6.07;;;5.03;;
10947;SDS011;5526;42.070;24.752;2023-04-29T09:25:23;5.63;;;4.65;;
10947;SDS011;5526;42.070;24.752;2023-04-29T09:27:51;4.85;;;4.38;;
10947;SDS011;5526;42.070;24.752;2023-04-29T09:30:19;5.28;;;4.78;;
10947;SDS011;5526;42.070;24.752;2023-04-29T09:35:33;4.53;;;4.13;;
10947;SDS011;5526;42.070;24.752;2023-04-29T09:38:10;4.55;;;4.13;;
10947;SDS011;5526;42.070;24.752;2023-04-29T09:40:38;4.30;;;4.00;;
10947;SDS011;5526;42.070;24.752;2023-04-29T09:43:10;3.78;;;3.45;;
10947;SDS011;5526;42.070;24.752;2023-04-29T09:45:40;4.30;;;3.60;;
10947;SDS011;5526;42.070;24.752;2023-04-29T09:48:10;3.97;;;3.60;;
10947;SDS011;5526;42.070;24.752;2023-04-29T09:50:38;3.92;;;3.63;;
10947;SDS011;5526;42.070;24.752;2023-04-29T09:53:08;3.70;;;3.40;;
10947;SDS011;5526;42.070;24.752;2023-04-29T09:55:36;4.75;;;3.78;;
10947;SDS011;5526;42.070;24.752;2023-04-29T09:58:26;5.55;;;3.75;;
10947;SDS011;5526;42.070;24.752;2023-04-29T10:00:55;4.15;;;3.75;;
10947;SDS011;5526;42.070;24.752;2023-04-29T10:03:27;5.45;;;5.03;;
10947;SDS011;5526;42.070;24.752;2023-04-29T10:05:59;6.28;;;5.35;;
10947;SDS011;5526;42.070;24.752;2023-04-29T10:08:28;5.90;;;5.40;;
10947;SDS011;5526;42.070;24.752;2023-04-29T10:10:56;4.78;;;3.72;;
10947;SDS011;5526;42.070;24.752;2023-04-29T10:13:26;3.60;;;3.03;;
10947;SDS011;5526;42.070;24.752;2023-04-29T10:15:57;4.60;;;3.42;;
10947;SDS011;5526;42.070;24.752;2023-04-29T10:18:33;5.22;;;3.15;;
10947;SDS011;5526;42.070;24.752;2023-04-29T10:21:05;5.53;;;4.40;;
10947;SDS011;5526;42.070;24.752;2023-04-29T10:23:33;5.30;;;4.50;;
10947;SDS011;5526;42.070;24.752;2023-04-29T10:26:02;4.60;;;4.18;;
10947;SDS011;5526;42.070;24.752;2023-04-29T10:28:29;5.20;;;4.70;;
10947;SDS011;5526;42.070;24.752;2023-04-29T10:30:58;4.07;;;3.78;;
10947;SDS011;5526;42.070;24.752;2023-04-29T10:33:30;5.88;;;5.00;;
10947;SDS011;5526;42.070;24.752;2023-04-29T10:35:59;5.57;;;4.05;;
10947;SDS011;5526;42.070;24.752;2023-04-29T10:38:28;3.78;;;3.47;;
10947;SDS011;5526;42.070;24.752;2023-04-29T10:41:01;4.00;;;3.58;;
10947;SDS011;5526;42.070;24.752;2023-04-29T10:43:34;4.40;;;3.63;;
10947;SDS011;5526;42.070;24.752;2023-04-29T10:46:17;4.78;;;4.38;;
10947;SDS011;5526;42.070;24.752;2023-04-29T10:48:46;5.80;;;3.92;;
10947;SDS011;5526;42.070;24.752;2023-04-29T10:51:28;5.47;;;2.97;;
10947;SDS011;5526;42.070;24.752;2023-04-29T10:54:00;5.28;;;3.58;;
10947;SDS011;5526;42.070;24.752;2023-04-29T10:56:39;4.47;;;3.47;;
10947;SDS011;5526;42.070;24.752;2023-04-29T10:59:11;3.65;;;3.22;;
10947;SDS011;5526;42.070;24.752;2023-04-29T11:01:40;4.90;;;2.90;;
10947;SDS011;5526;42.070;24.752;2023-04-29T11:04:09;3.58;;;3.00;;
10947;SDS011;5526;42.070;24.752;2023-04-29T11:06:42;3.75;;;3.45;;
10947;SDS011;5526;42.070;24.752;2023-04-29T11:09:12;4.22;;;3.65;;
10947;SDS011;5526;42.070;24.752;2023-04-29T11:14:29;3.50;;;3.13;;
10947;SDS011;5526;42.070;24.752;2023-04-29T11:16:58;3.55;;;3.15;;
10947;SDS011;5526;42.070;24.752;2023-04-29T11:19:30;3.35;;;3.05;;
10947;SDS011;5526;42.070;24.752;2023-04-29T11:24:55;7.53;;;3.47;;
10947;SDS011;5526;42.070;24.752;2023-04-29T11:27:25;3.83;;;3.53;;
10947;SDS011;5526;42.070;24.752;2023-04-29T11:29:55;3.63;;;3.33;;
10947;SDS011;5526;42.070;24.752;2023-04-29T11:32:26;6.05;;;3.75;;
10947;SDS011;5526;42.070;24.752;2023-04-29T11:34:54;3.97;;;3.60;;
10947;SDS011;5526;42.070;24.752;2023-04-29T11:37:34;4.10;;;3.70;;
10947;SDS011;5526;42.070;24.752;2023-04-29T11:40:01;4.18;;;2.97;;
10947;SDS011;5526;42.070;24.752;2023-04-29T11:42:29;6.65;;;3.13;;
10947;SDS011;5526;42.070;24.752;2023-04-29T11:44:56;4.47;;;2.90;;
10947;SDS011;5526;42.070;24.752;2023-04-29T11:47:25;3.97;;;3.08;;
10947;SDS011;5526;42.070;24.752;2023-04-29T11:50:00;3.50;;;3.03;;
10947;SDS011;5526;42.070;24.752;2023-04-29T11:52:29;3.35;;;3.05;;
10947;SDS011;5526;42.070;24.752;2023-04-29T11:54:58;3.35;;;2.85;;
10947;SDS011;5526;42.070;24.752;2023-04-29T11:57:25;4.20;;;2.75;;
10947;SDS011;5526;42.070;24.752;2023-04-29T11:59:52;4.03;;;3.33;;
10947;SDS011;5526;42.070;24.752;2023-04-29T12:02:20;3.53;;;3.22;;
10947;SDS011;5526;42.070;24.752;2023-04-29T12:04:48;4.45;;;3.22;;
10947;SDS011;5526;42.070;24.752;2023-04-29T12:07:15;4.05;;;2.97;;
10947;SDS011;5526;42.070;24.752;2023-04-29T12:09:43;4.80;;;2.95;;
10947;SDS011;5526;42.070;24.752;2023-04-29T12:12:12;4.18;;;3.05;;
10947;SDS011;5526;42.070;24.752;2023-04-29T12:14:40;2.67;;;2.47;;
10947;SDS011;5526;42.070;24.752;2023-04-29T12:17:08;5.47;;;3.00;;
10947;SDS011;5526;42.070;24.752;2023-04-29T12:19:36;3.13;;;2.83;;
10947;SDS011;5526;42.070;24.752;2023-04-29T12:22:05;2.63;;;2.30;;
10947;SDS011;5526;42.070;24.752;2023-04-29T12:24:34;2.50;;;2.30;;
10947;SDS011;5526;42.070;24.752;2023-04-29T12:27:02;2.53;;;2.33;;
10947;SDS011;5526;42.070;24.752;2023-04-29T12:29:31;2.50;;;2.30;;
10947;SDS011;5526;42.070;24.752;2023-04-29T12:31:59;3.67;;;2.35;;
10947;SDS011;5526;42.070;24.752;2023-04-29T12:34:27;2.75;;;2.30;;
10947;SDS011;5526;42.070;24.752;2023-04-29T12:36:55;2.47;;;2.28;;
10947;SDS011;5526;42.070;24.752;2023-04-29T12:39:24;4.63;;;2.67;;
10947;SDS011;5526;42.070;24.752;2023-04-29T12:41:53;3.22;;;2.47;;
10947;SDS011;5526;42.070;24.752;2023-04-29T12:44:22;6.80;;;2.80;;
10947;SDS011;5526;42.070;24.752;2023-04-29T12:46:51;4.65;;;2.53;;
10947;SDS011;5526;42.070;24.752;2023-04-29T12:49:18;2.72;;;2.53;;
10947;SDS011;5526;42.070;24.752;2023-04-29T12:51:45;3.85;;;2.72;;
10947;SDS011;5526;42.070;24.752;2023-04-29T12:54:13;4.00;;;2.28;;
10947;SDS011;5526;42.070;24.752;2023-04-29T12:56:40;3.38;;;2.25;;
10947;SDS011;5526;42.070;24.752;2023-04-29T12:59:08;2.65;;;2.45;;
10947;SDS011;5526;42.070;24.752;2023-04-29T13:01:36;3.17;;;2.42;;
10947;SDS011;5526;42.070;24.752;2023-04-29T13:04:04;5.22;;;2.40;;
10947;SDS011;5526;42.070;24.752;2023-04-29T13:06:33;2.55;;;2.30;;
10947;SDS011;5526;42.070;24.752;2023-04-29T13:09:04;2.97;;;2.67;;
10947;SDS011;5526;42.070;24.752;2023-04-29T13:11:31;2.58;;;2.38;;
10947;SDS011;5526;42.070;24.752;2023-04-29T13:13:59;2.30;;;2.10;;
10947;SDS011;5526;42.070;24.752;2023-04-29T13:16:26;3.65;;;2.53;;
10947;SDS011;5526;42.070;24.752;2023-04-29T13:18:53;3.78;;;2.42;;
10947;SDS011;5526;42.070;24.752;2023-04-29T13:21:22;2.88;;;2.53;;
10947;SDS011;5526;42.070;24.752;2023-04-29T13:23:49;3.00;;;2.70;;
10947;SDS011;5526;42.070;24.752;2023-04-29T13:26:17;3.13;;;2.30;;
10947;SDS011;5526;42.070;24.752;2023-04-29T13:28:44;2.38;;;2.17;;
10947;SDS011;5526;42.070;24.752;2023-04-29T13:31:11;3.22;;;2.10;;
10947;SDS011;5526;42.070;24.752;2023-04-29T13:33:38;2.65;;;2.45;;
10947;SDS011;5526;42.070;24.752;2023-04-29T13:36:06;3.15;;;2.45;;
10947;SDS011;5526;42.070;24.752;2023-04-29T13:38:35;8.00;;;2.42;;
10947;SDS011;5526;42.070;24.752;2023-04-29T13:41:02;6.07;;;2.75;;
10947;SDS011;5526;42.070;24.752;2023-04-29T13:43:29;2.13;;;2.03;;
10947;SDS011;5526;42.070;24.752;2023-04-29T13:45:56;3.65;;;2.42;;
10947;SDS011;5526;42.070;24.752;2023-04-29T13:48:24;4.35;;;2.15;;
10947;SDS011;5526;42.070;24.752;2023-04-29T13:50:51;4.13;;;2.17;;
10947;SDS011;5526;42.070;24.752;2023-04-29T13:53:18;2.15;;;1.88;;
10947;SDS011;5526;42.070;24.752;2023-04-29T13:55:47;2.72;;;2.00;;
10947;SDS011;5526;42.070;24.752;2023-04-29T13:58:14;2.20;;;2.10;;
10947;SDS011;5526;42.070;24.752;2023-04-29T14:00:41;3.08;;;1.90;;
10947;SDS011;5526;42.070;24.752;2023-04-29T14:03:09;2.45;;;2.13;;
10947;SDS011;5526;42.070;24.752;2023-04-29T14:05:36;2.50;;;2.30;;
10947;SDS011;5526;42.070;24.752;2023-04-29T14:08:03;3.92;;;2.15;;
10947;SDS011;5526;42.070;24.752;2023-04-29T14:10:31;2.20;;;2.10;;
10947;SDS011;5526;42.070;24.752;2023-04-29T14:12:59;3.47;;;2.20;;
10947;SDS011;5526;42.070;24.752;2023-04-29T14:15:27;1.88;;;1.77;;
10947;SDS011;5526;42.070;24.752;2023-04-29T14:17:54;3.00;;;2.05;;
10947;SDS011;5526;42.070;24.752;2023-04-29T14:20:21;4.55;;;2.70;;
10947;SDS011;5526;42.070;24.752;2023-04-29T14:22:49;2.97;;;2.60;;
10947;SDS011;5526;42.070;24.752;2023-04-29T14:25:16;3.30;;;2.90;;
10947;SDS011;5526;42.070;24.752;2023-04-29T14:27:43;5.38;;;2.85;;
10947;SDS011;5526;42.070;24.752;2023-04-29T14:30:12;4.40;;;2.70;;
10947;SDS011;5526;42.070;24.752;2023-04-29T14:32:39;4.38;;;2.75;;
10947;SDS011;5526;42.070;24.752;2023-04-29T14:35:06;2.88;;;2.42;;
10947;SDS011;5526;42.070;24.752;2023-04-29T14:37:34;2.78;;;2.58;;
10947;SDS011;5526;42.070;24.752;2023-04-29T14:40:01;3.97;;;2.20;;
10947;SDS011;5526;42.070;24.752;2023-04-29T14:42:29;4.28;;;2.20;;
10947;SDS011;5526;42.070;24.752;2023-04-29T14:44:56;3.83;;;2.53;;
10947;SDS011;5526;42.070;24.752;2023-04-29T14:47:25;3.03;;;2.30;;
10947;SDS011;5526;42.070;24.752;2023-04-29T14:49:53;3.03;;;2.15;;
10947;SDS011;5526;42.070;24.752;2023-04-29T14:52:20;2.88;;;2.55;;
10947;SDS011;5526;42.070;24.752;2023-04-29T14:54:47;5.28;;;2.83;;
10947;SDS011;5526;42.070;24.752;2023-04-29T14:57:15;3.08;;;2.25;;
10947;SDS011;5526;42.070;24.752;2023-04-29T14:59:42;3.80;;;2.45;;
10947;SDS011;5526;42.070;24.752;2023-04-29T15:02:10;5.70;;;2.60;;
10947;SDS011;5526;42.070;24.752;2023-04-29T15:04:38;3.33;;;2.67;;
10947;SDS011;5526;42.070;24.752;2023-04-29T15:07:09;3.88;;;2.25;;